createdAt,value
2022-08-12T17:32:00.244Z,16.52
2022-08-12T17:34:48.583Z,18.23
2022-08-12T17:37:16.392Z,15.48
2022-08-12T17:40:15.100Z,14.68
2022-08-12T17:42:35.518Z,17.00
2022-08-12T17:45:18.500Z,15.40
2022-08-12T17:48:04.590Z,13.55
2022-08-12T17:50:34.488Z,17.05
2022-08-12T17:53:03.215Z,15.98
2022-08-12T17:55:40.750Z,15.25
2022-08-12T17:58:12.906Z,16.30
2022-08-12T18:00:45.697Z,16.23
2022-08-12T18:03:58.178Z,13.80
2022-08-12T18:06:08.773Z,12.20
2022-08-12T18:08:54.790Z,15.13
2022-08-12T18:12:06.675Z,13.73
2022-08-12T18:14:29.955Z,15.13
2022-08-12T18:17:00.748Z,13.75
2022-08-12T18:20:03.517Z,14.07
2022-08-12T18:22:17.620Z,13.95
2022-08-12T18:24:49.512Z,15.85
2022-08-12T18:27:44.620Z,17.85
2022-08-12T18:30:16.535Z,15.77
2022-08-12T18:33:04.032Z,17.92
2022-08-12T18:35:46.891Z,15.38
2022-08-12T18:38:21.919Z,18.15
2022-08-12T18:41:09.526Z,17.50
2022-08-12T18:43:58.474Z,15.65
2022-08-12T18:46:55.768Z,16.05
2022-08-12T18:49:32.081Z,17.77
2022-08-12T18:52:04.445Z,18.83
2022-08-12T18:54:35.498Z,17.98
2022-08-12T18:57:19.644Z,18.85
2022-08-12T19:00:01.618Z,22.10
2022-08-12T19:02:33.440Z,19.00
2022-08-12T19:05:10.153Z,21.23
2022-08-12T19:07:49.785Z,19.33
2022-08-12T19:13:24.322Z,19.85
2022-08-12T19:15:57.506Z,21.42
2022-08-12T19:18:29.566Z,22.77
2022-08-12T19:20:59.209Z,21.77
2022-08-12T19:23:33.818Z,18.20
2022-08-12T19:26:03.699Z,21.02
2022-08-12T19:28:34.723Z,21.40
2022-08-12T19:31:44.519Z,19.45
2022-08-12T19:36:08.209Z,20.10
2022-08-12T19:38:03.163Z,20.85
2022-08-12T19:40:32.916Z,22.58
2022-08-12T19:43:13.423Z,21.63
2022-08-12T19:45:57.232Z,22.17
2022-08-12T19:48:32.753Z,20.83
2022-08-12T19:51:22.442Z,22.90
2022-08-12T19:53:58.177Z,20.38
2022-08-12T19:56:27.616Z,23.02
2022-08-12T19:59:19.227Z,21.67
2022-08-12T20:02:02.674Z,23.05
2022-08-12T20:04:37.784Z,21.80
2022-08-12T20:07:07.968Z,21.45
2022-08-12T20:09:52.600Z,27.13
2022-08-12T20:12:30.960Z,25.13
2022-08-12T20:15:05.219Z,21.83
2022-08-12T20:17:36.420Z,22.35
2022-08-12T20:20:21.123Z,23.13
2022-08-12T20:22:54.633Z,22.30
2022-08-12T20:25:28.470Z,21.90
2022-08-12T20:28:09.883Z,22.60
2022-08-12T20:30:59.185Z,23.58
2022-08-12T20:33:32.229Z,21.40
2022-08-12T20:36:40.918Z,21.98
2022-08-12T20:39:01.170Z,23.65
2022-08-12T20:41:30.274Z,22.42
2022-08-12T20:43:59.655Z,25.17
2022-08-12T20:46:31.570Z,23.15
2022-08-12T20:49:17.105Z,21.52
2022-08-12T20:51:55.677Z,21.50
2022-08-12T20:54:23.026Z,21.65
2022-08-12T20:57:02.124Z,21.42
2022-08-12T20:59:47.749Z,20.00
2022-08-12T21:02:15.674Z,23.40
2022-08-12T21:05:00.863Z,21.70
2022-08-12T21:07:27.699Z,21.13
2022-08-12T21:10:03.367Z,21.88
2022-08-12T21:12:33.063Z,22.38
2022-08-12T21:15:23.596Z,20.25
2022-08-12T21:18:11.420Z,24.33
2022-08-12T21:20:55.409Z,21.33
2022-08-12T21:23:23.454Z,20.55
2022-08-12T21:25:53.795Z,21.35
2022-08-12T21:32:35.151Z,22.15
2022-08-12T21:34:06.508Z,21.45
2022-08-12T21:36:37.721Z,20.10
2022-08-12T21:39:20.356Z,21.40
2022-08-12T21:41:52.757Z,21.48
2022-08-12T21:45:44.300Z,21.92
2022-08-12T21:47:21.444Z,21.48
2022-08-12T21:50:06.729Z,22.08
2022-08-12T21:52:40.899Z,20.92
2022-08-12T21:55:18.389Z,21.35
2022-08-12T21:57:53.803Z,22.17
2022-08-12T22:00:34.346Z,22.67
2022-08-12T22:04:03.023Z,22.45
2022-08-12T22:06:26.480Z,23.33
2022-08-12T22:09:09.015Z,22.48
2022-08-12T22:11:56.033Z,24.67
2022-08-12T22:14:24.143Z,22.52
2022-08-12T22:16:52.881Z,26.50
2022-08-12T22:19:21.152Z,23.60
2022-08-12T22:21:54.355Z,25.20
2022-08-12T22:24:27.131Z,22.58
2022-08-12T22:27:18.141Z,25.85
2022-08-12T22:30:11.229Z,25.90
2022-08-12T22:32:51.573Z,22.73
2022-08-12T22:35:55.936Z,22.00
2022-08-12T22:38:25.045Z,23.67
2022-08-12T22:41:07.957Z,23.25
2022-08-12T22:44:00.168Z,22.75
2022-08-12T22:46:37.262Z,23.08
2022-08-12T22:49:06.621Z,22.63
2022-08-12T22:51:37.123Z,23.00
2022-08-12T22:54:35.945Z,22.05
2022-08-12T22:59:51.130Z,21.15
2022-08-12T23:02:17.793Z,23.08
2022-08-12T23:04:56.949Z,23.50
2022-08-12T23:07:24.292Z,26.63
2022-08-12T23:09:52.148Z,25.60
2022-08-12T23:12:41.027Z,25.33
2022-08-12T23:15:13.396Z,26.30
2022-08-12T23:17:41.633Z,23.05
2022-08-12T23:20:10.802Z,23.67
2022-08-12T23:22:38.622Z,26.98
2022-08-12T23:25:08.036Z,27.55
2022-08-12T23:28:06.420Z,24.90
2022-08-12T23:30:58.669Z,23.58
2022-08-12T23:34:01.743Z,25.65
2022-08-12T23:36:39.100Z,23.63
2022-08-12T23:40:13.324Z,24.67
2022-08-12T23:42:17.757Z,22.92
2022-08-12T23:44:47.241Z,21.92
2022-08-12T23:49:58.159Z,19.35
2022-08-12T23:52:30.569Z,20.67
2022-08-12T23:55:23.688Z,19.38
2022-08-12T23:58:17.482Z,19.77
